FIN578 EFKT-EFHK
Flight info
| Callsign | FIN578 |
|---|---|
| Flight time | 1h 3m |
| Altitude | 37000 |
| Route | TUGPU Y86 LUSEP |
| Aircraft | A321/M-SDE3FGHIRWY/LB1 |
Departure
| Time | 2026-04-23 19:04 |
|---|---|
| Airport | Kittilä International Airport (EFKT) |
Arrival
| Time | 2026-04-23 20:07 |
|---|---|
| Airport | Helsinki Vantaa Airport (EFHK) |
| Time | Latitude | Longitude | Altitude | Speed | Heading |
|---|---|---|---|---|---|
| 2026-04-23 18:43 | 67.69545 | 24.85681 | 640 ft | 0 kts | 126° |
| 2026-04-23 19:01 | 67.69541 | 24.85688 | 645 ft | 2 kts | 136° |
| 2026-04-23 19:01 | 67.69517 | 24.85652 | 640 ft | 5 kts | 253° |
| 2026-04-23 19:02 | 67.69515 | 24.85568 | 640 ft | 8 kts | 272° |
| 2026-04-23 19:02 | 67.69526 | 24.85349 | 643 ft | 0 kts | 253° |
| 2026-04-23 19:02 | 67.69525 | 24.85346 | 643 ft | 0 kts | 253° |
| 2026-04-23 19:02 | 67.69514 | 24.85253 | 647 ft | 12 kts | 253° |
| 2026-04-23 19:03 | 67.69504 | 24.85084 | 645 ft | 8 kts | 296° |
| 2026-04-23 19:03 | 67.69573 | 24.85026 | 638 ft | 23 kts | 345° |
| 2026-04-23 19:03 | 67.70002 | 24.84754 | 641 ft | 101 kts | 346° |
| 2026-04-23 19:03 | 67.70872 | 24.84205 | 865 ft | 139 kts | 347° |
| 2026-04-23 19:04 | 67.71502 | 24.83806 | 1438 ft | 139 kts | 347° |
| 2026-04-23 19:04 | 67.72449 | 24.83226 | 2170 ft | 146 kts | 349° |
| 2026-04-23 19:04 | 67.73502 | 24.83408 | 2521 ft | 169 kts | 26° |
| 2026-04-23 19:04 | 67.74242 | 24.86110 | 2764 ft | 208 kts | 70° |
| 2026-04-23 19:05 | 67.74184 | 24.90252 | 3002 ft | 245 kts | 95° |
| 2026-04-23 19:05 | 67.73709 | 24.94715 | 3716 ft | 257 kts | 102° |
| 2026-04-23 19:05 | 67.73118 | 24.99218 | 4582 ft | 263 kts | 103° |
| 2026-04-23 19:05 | 67.72297 | 25.03625 | 5410 ft | 278 kts | 126° |
| 2026-04-23 19:06 | 67.70713 | 25.06777 | 6063 ft | 299 kts | 158° |
| 2026-04-23 19:06 | 67.68674 | 25.08188 | 6757 ft | 307 kts | 168° |
| 2026-04-23 19:06 | 67.66572 | 25.09454 | 7544 ft | 313 kts | 168° |
| 2026-04-23 19:06 | 67.64429 | 25.10783 | 8340 ft | 320 kts | 168° |
| 2026-04-23 19:07 | 67.62247 | 25.12165 | 9139 ft | 325 kts | 169° |
| 2026-04-23 19:07 | 67.60028 | 25.13582 | 9897 ft | 332 kts | 169° |
| 2026-04-23 19:07 | 67.57707 | 25.15053 | 10157 ft | 355 kts | 169° |
| 2026-04-23 19:07 | 67.55233 | 25.16604 | 10459 ft | 374 kts | 169° |
| 2026-04-23 19:08 | 67.52678 | 25.18214 | 11088 ft | 381 kts | 169° |
| 2026-04-23 19:08 | 67.50088 | 25.19879 | 11808 ft | 386 kts | 169° |
| 2026-04-23 19:08 | 67.47463 | 25.21593 | 12536 ft | 391 kts | 168° |
| 2026-04-23 19:08 | 67.44812 | 25.23330 | 13241 ft | 395 kts | 168° |
| 2026-04-23 19:09 | 67.42131 | 25.25081 | 13887 ft | 400 kts | 168° |
| 2026-04-23 19:09 | 67.39413 | 25.26841 | 14498 ft | 405 kts | 168° |
| 2026-04-23 19:09 | 67.36658 | 25.28614 | 15106 ft | 410 kts | 168° |
| 2026-04-23 19:09 | 67.33870 | 25.30389 | 15694 ft | 416 kts | 168° |
| 2026-04-23 19:10 | 67.31039 | 25.32178 | 16293 ft | 421 kts | 168° |
| 2026-04-23 19:10 | 67.28146 | 25.33438 | 16872 ft | 423 kts | 181° |
| 2026-04-23 19:10 | 67.25196 | 25.33490 | 17455 ft | 426 kts | 184° |
| 2026-04-23 19:10 | 67.22208 | 25.33471 | 18042 ft | 432 kts | 184° |
| 2026-04-23 19:11 | 67.19187 | 25.33443 | 18487 ft | 437 kts | 184° |
| 2026-04-23 19:11 | 67.16116 | 25.33399 | 18984 ft | 443 kts | 185° |
| 2026-04-23 19:11 | 67.13020 | 25.33343 | 19548 ft | 447 kts | 185° |
| 2026-04-23 19:11 | 67.09894 | 25.33283 | 20035 ft | 452 kts | 185° |
| 2026-04-23 19:12 | 67.06725 | 25.33224 | 20543 ft | 458 kts | 185° |
| 2026-04-23 19:12 | 67.03522 | 25.33168 | 21031 ft | 463 kts | 185° |
| 2026-04-23 19:12 | 67.00282 | 25.33113 | 21513 ft | 468 kts | 185° |
| 2026-04-23 19:12 | 66.97004 | 25.33059 | 21988 ft | 474 kts | 186° |
| 2026-04-23 19:13 | 66.93734 | 25.33000 | 22457 ft | 479 kts | 186° |
| 2026-04-23 19:13 | 66.90389 | 25.32946 | 22919 ft | 484 kts | 186° |
| 2026-04-23 19:13 | 66.87006 | 25.32890 | 23361 ft | 489 kts | 186° |
| 2026-04-23 19:13 | 66.83592 | 25.32841 | 23661 ft | 493 kts | 186° |
| 2026-04-23 19:14 | 66.80133 | 25.32816 | 23911 ft | 501 kts | 186° |
| 2026-04-23 19:14 | 66.76625 | 25.32806 | 24228 ft | 506 kts | 186° |
| 2026-04-23 19:14 | 66.73093 | 25.32807 | 24602 ft | 510 kts | 186° |
| 2026-04-23 19:14 | 66.69532 | 25.32814 | 24968 ft | 514 kts | 186° |
| 2026-04-23 19:15 | 66.65945 | 25.32822 | 25334 ft | 517 kts | 186° |
| 2026-04-23 19:15 | 66.62334 | 25.32833 | 25715 ft | 520 kts | 186° |
| 2026-04-23 19:15 | 66.58711 | 25.32837 | 26079 ft | 523 kts | 186° |
| 2026-04-23 19:15 | 66.55057 | 25.32828 | 26437 ft | 526 kts | 186° |
| 2026-04-23 19:16 | 66.51387 | 25.32814 | 26789 ft | 529 kts | 186° |
| 2026-04-23 19:16 | 66.47689 | 25.32798 | 27063 ft | 533 kts | 186° |
| 2026-04-23 19:16 | 66.43959 | 25.32778 | 27296 ft | 539 kts | 186° |
| 2026-04-23 19:17 | 66.36416 | 25.32755 | 28093 ft | 544 kts | 186° |
| 2026-04-23 19:17 | 66.32622 | 25.32758 | 28449 ft | 547 kts | 186° |
| 2026-04-23 19:17 | 66.28804 | 25.32764 | 28771 ft | 550 kts | 186° |
| 2026-04-23 19:17 | 66.24967 | 25.32766 | 29088 ft | 553 kts | 186° |
| 2026-04-23 19:18 | 66.21112 | 25.32760 | 29394 ft | 556 kts | 186° |
| 2026-04-23 19:18 | 66.17232 | 25.32746 | 29708 ft | 558 kts | 186° |
| 2026-04-23 19:18 | 66.13339 | 25.32733 | 29990 ft | 561 kts | 186° |
| 2026-04-23 19:18 | 66.09423 | 25.32729 | 30145 ft | 565 kts | 186° |
| 2026-04-23 19:19 | 66.01534 | 25.32730 | 30697 ft | 569 kts | 186° |
| 2026-04-23 19:19 | 65.97589 | 25.32721 | 31139 ft | 566 kts | 185° |
| 2026-04-23 19:20 | 65.89745 | 25.32698 | 32047 ft | 560 kts | 185° |
| 2026-04-23 19:20 | 65.85857 | 25.32689 | 32490 ft | 558 kts | 185° |
| 2026-04-23 19:20 | 65.81992 | 25.32690 | 32935 ft | 555 kts | 185° |
| 2026-04-23 19:20 | 65.78132 | 25.32697 | 33376 ft | 552 kts | 185° |
| 2026-04-23 19:21 | 65.74299 | 25.32700 | 33804 ft | 550 kts | 185° |
| 2026-04-23 19:21 | 65.66692 | 25.32680 | 34524 ft | 544 kts | 184° |
| 2026-04-23 19:21 | 65.62917 | 25.32663 | 34881 ft | 541 kts | 184° |
| 2026-04-23 19:22 | 65.59161 | 25.32647 | 35232 ft | 538 kts | 184° |
| 2026-04-23 19:22 | 65.55431 | 25.32634 | 35603 ft | 535 kts | 184° |
| 2026-04-23 19:22 | 65.48017 | 25.32630 | 36295 ft | 530 kts | 183° |
| 2026-04-23 19:23 | 65.44336 | 25.32626 | 36616 ft | 528 kts | 183° |
| 2026-04-23 19:23 | 65.40671 | 25.32612 | 36707 ft | 527 kts | 184° |
| 2026-04-23 19:24 | 65.29760 | 25.30927 | 36758 ft | 522 kts | 190° |
| 2026-04-23 19:24 | 65.18921 | 25.28396 | 36763 ft | 522 kts | 188° |
| 2026-04-23 19:25 | 65.04404 | 25.26020 | 36725 ft | 523 kts | 188° |
| 2026-04-23 19:26 | 64.93493 | 25.24161 | 36757 ft | 525 kts | 188° |
| 2026-04-23 19:27 | 64.75248 | 25.21010 | 36808 ft | 526 kts | 188° |
| 2026-04-23 19:28 | 64.60629 | 25.18558 | 36789 ft | 527 kts | 188° |
| 2026-04-23 19:29 | 64.49695 | 25.16720 | 36795 ft | 528 kts | 188° |
| 2026-04-23 19:30 | 64.38706 | 25.14883 | 36774 ft | 528 kts | 188° |
| 2026-04-23 19:31 | 64.27714 | 25.13092 | 36809 ft | 528 kts | 188° |
| 2026-04-23 19:31 | 64.20383 | 25.11900 | 36815 ft | 528 kts | 188° |
| 2026-04-23 19:32 | 64.13058 | 25.10707 | 36815 ft | 528 kts | 188° |
| 2026-04-23 19:32 | 64.05733 | 25.09522 | 36780 ft | 527 kts | 188° |
| 2026-04-23 19:33 | 63.98412 | 25.08351 | 36804 ft | 526 kts | 187° |
| 2026-04-23 19:33 | 63.87493 | 25.06596 | 36805 ft | 524 kts | 187° |
| 2026-04-23 19:34 | 63.80207 | 25.05419 | 36812 ft | 525 kts | 187° |
| 2026-04-23 19:35 | 63.69265 | 25.03709 | 36796 ft | 525 kts | 187° |
| 2026-04-23 19:35 | 63.61975 | 25.02580 | 36820 ft | 526 kts | 187° |
| 2026-04-23 19:36 | 63.54676 | 25.01438 | 36827 ft | 526 kts | 187° |
| 2026-04-23 19:36 | 63.47375 | 25.00303 | 36828 ft | 526 kts | 187° |
| 2026-04-23 19:37 | 63.40075 | 24.99169 | 36807 ft | 526 kts | 187° |
| 2026-04-23 19:37 | 63.32777 | 24.98052 | 36826 ft | 526 kts | 187° |
| 2026-04-23 19:38 | 63.25473 | 24.96939 | 36842 ft | 526 kts | 187° |
| 2026-04-23 19:38 | 63.18175 | 24.95822 | 36845 ft | 526 kts | 187° |
| 2026-04-23 19:39 | 63.10890 | 24.94727 | 36807 ft | 523 kts | 187° |
| 2026-04-23 19:39 | 63.03610 | 24.93637 | 36809 ft | 526 kts | 187° |
| 2026-04-23 19:40 | 62.96305 | 24.92536 | 36833 ft | 527 kts | 187° |
| 2026-04-23 19:40 | 62.88991 | 24.91444 | 36842 ft | 527 kts | 187° |
| 2026-04-23 19:41 | 62.81680 | 24.90367 | 36841 ft | 527 kts | 187° |
| 2026-04-23 19:41 | 62.74367 | 24.89298 | 36814 ft | 527 kts | 187° |
| 2026-04-23 19:42 | 62.67053 | 24.88220 | 36824 ft | 527 kts | 187° |
| 2026-04-23 19:42 | 62.59733 | 24.87149 | 36834 ft | 527 kts | 187° |
| 2026-04-23 19:43 | 62.52418 | 24.86089 | 36838 ft | 527 kts | 187° |
| 2026-04-23 19:43 | 62.45097 | 24.85026 | 36838 ft | 527 kts | 187° |
| 2026-04-23 19:44 | 62.37826 | 24.83987 | 36848 ft | 527 kts | 187° |
| 2026-04-23 19:44 | 62.30503 | 24.82924 | 36825 ft | 526 kts | 187° |
| 2026-04-23 19:45 | 62.23200 | 24.81882 | 36769 ft | 528 kts | 187° |
| 2026-04-23 19:45 | 62.19537 | 24.81369 | 36505 ft | 528 kts | 187° |
| 2026-04-23 19:45 | 62.15864 | 24.80856 | 36249 ft | 529 kts | 187° |
| 2026-04-23 19:45 | 62.12187 | 24.80341 | 35967 ft | 530 kts | 187° |
| 2026-04-23 19:46 | 62.08452 | 24.79810 | 35709 ft | 531 kts | 187° |
| 2026-04-23 19:46 | 62.04809 | 24.79290 | 35462 ft | 533 kts | 187° |
| 2026-04-23 19:46 | 62.01055 | 24.78760 | 35223 ft | 534 kts | 187° |
| 2026-04-23 19:46 | 61.97344 | 24.78242 | 34652 ft | 536 kts | 188° |
| 2026-04-23 19:47 | 61.94876 | 24.77898 | 34182 ft | 538 kts | 188° |
| 2026-04-23 19:47 | 61.89828 | 24.77193 | 32994 ft | 547 kts | 188° |
| 2026-04-23 19:47 | 61.86023 | 24.76658 | 32148 ft | 550 kts | 188° |
| 2026-04-23 19:47 | 61.82180 | 24.76117 | 31224 ft | 557 kts | 188° |
| 2026-04-23 19:48 | 61.78298 | 24.75579 | 30312 ft | 561 kts | 188° |
| 2026-04-23 19:48 | 61.74463 | 24.75057 | 29797 ft | 557 kts | 188° |
| 2026-04-23 19:48 | 61.71857 | 24.74708 | 29327 ft | 555 kts | 188° |
| 2026-04-23 19:48 | 61.68016 | 24.74195 | 28769 ft | 550 kts | 188° |
| 2026-04-23 19:49 | 61.64214 | 24.73682 | 28179 ft | 545 kts | 188° |
| 2026-04-23 19:49 | 61.59228 | 24.73001 | 27411 ft | 539 kts | 188° |
| 2026-04-23 19:49 | 61.55497 | 24.72492 | 26837 ft | 535 kts | 188° |
| 2026-04-23 19:49 | 61.51796 | 24.71989 | 26262 ft | 532 kts | 187° |
| 2026-04-23 19:50 | 61.48112 | 24.71485 | 25643 ft | 528 kts | 187° |
| 2026-04-23 19:50 | 61.45646 | 24.71148 | 25303 ft | 524 kts | 187° |
| 2026-04-23 19:50 | 61.42015 | 24.70654 | 24726 ft | 521 kts | 187° |
| 2026-04-23 19:50 | 61.38418 | 24.70170 | 24173 ft | 517 kts | 187° |
| 2026-04-23 19:51 | 61.34844 | 24.69692 | 23630 ft | 512 kts | 187° |
| 2026-04-23 19:51 | 61.31298 | 24.69219 | 23043 ft | 508 kts | 187° |
| 2026-04-23 19:51 | 61.27800 | 24.68753 | 22532 ft | 501 kts | 187° |
| 2026-04-23 19:51 | 61.24347 | 24.68295 | 22036 ft | 494 kts | 187° |
| 2026-04-23 19:52 | 61.20938 | 24.67843 | 21550 ft | 488 kts | 187° |
| 2026-04-23 19:52 | 61.17571 | 24.67394 | 21037 ft | 482 kts | 186° |
| 2026-04-23 19:52 | 61.14244 | 24.66951 | 20609 ft | 476 kts | 186° |
| 2026-04-23 19:52 | 61.10956 | 24.66516 | 20134 ft | 472 kts | 187° |
| 2026-04-23 19:53 | 61.07690 | 24.66090 | 19640 ft | 469 kts | 187° |
| 2026-04-23 19:53 | 61.04449 | 24.65669 | 19167 ft | 465 kts | 187° |
| 2026-04-23 19:53 | 61.01222 | 24.65246 | 18675 ft | 462 kts | 187° |
| 2026-04-23 19:53 | 60.98024 | 24.64823 | 18179 ft | 460 kts | 187° |
| 2026-04-23 19:54 | 60.94843 | 24.64402 | 17622 ft | 456 kts | 187° |
| 2026-04-23 19:54 | 60.91688 | 24.63992 | 17114 ft | 451 kts | 187° |
| 2026-04-23 19:54 | 60.88574 | 24.63590 | 16599 ft | 446 kts | 186° |
| 2026-04-23 19:54 | 60.85493 | 24.63189 | 16045 ft | 442 kts | 186° |
| 2026-04-23 19:55 | 60.82442 | 24.62792 | 15570 ft | 436 kts | 186° |
| 2026-04-23 19:55 | 60.79428 | 24.62398 | 15051 ft | 432 kts | 186° |
| 2026-04-23 19:55 | 60.76442 | 24.62005 | 14536 ft | 427 kts | 186° |
| 2026-04-23 19:55 | 60.73489 | 24.61619 | 14060 ft | 423 kts | 186° |
| 2026-04-23 19:56 | 60.70562 | 24.61242 | 13484 ft | 420 kts | 186° |
| 2026-04-23 19:56 | 60.67665 | 24.60872 | 12963 ft | 414 kts | 186° |
| 2026-04-23 19:56 | 60.64815 | 24.60508 | 12456 ft | 408 kts | 185° |
| 2026-04-23 19:56 | 60.62001 | 24.60151 | 11957 ft | 402 kts | 185° |
| 2026-04-23 19:57 | 60.59273 | 24.59805 | 11584 ft | 393 kts | 185° |
| 2026-04-23 19:57 | 60.56570 | 24.59463 | 11098 ft | 387 kts | 185° |
| 2026-04-23 19:57 | 60.53902 | 24.59120 | 10624 ft | 381 kts | 185° |
| 2026-04-23 19:57 | 60.51298 | 24.58784 | 10446 ft | 368 kts | 185° |
| 2026-04-23 19:58 | 60.48795 | 24.58466 | 10323 ft | 354 kts | 185° |
| 2026-04-23 19:58 | 60.46383 | 24.58159 | 10186 ft | 341 kts | 185° |
| 2026-04-23 19:58 | 60.44056 | 24.57861 | 10062 ft | 329 kts | 185° |
| 2026-04-23 19:58 | 60.41798 | 24.57574 | 9822 ft | 323 kts | 185° |
| 2026-04-23 19:59 | 60.39571 | 24.57290 | 9482 ft | 319 kts | 186° |
| 2026-04-23 19:59 | 60.37436 | 24.56473 | 9309 ft | 306 kts | 199° |
| 2026-04-23 19:59 | 60.35426 | 24.55264 | 9173 ft | 296 kts | 200° |
| 2026-04-23 19:59 | 60.33485 | 24.54060 | 9036 ft | 287 kts | 200° |
| 2026-04-23 20:00 | 60.31607 | 24.52896 | 8890 ft | 278 kts | 200° |
| 2026-04-23 20:00 | 60.29774 | 24.51765 | 8651 ft | 274 kts | 200° |
| 2026-04-23 20:00 | 60.27962 | 24.50648 | 8376 ft | 269 kts | 200° |
| 2026-04-23 20:00 | 60.26176 | 24.49548 | 7985 ft | 268 kts | 200° |
| 2026-04-23 20:01 | 60.24400 | 24.48447 | 7584 ft | 266 kts | 200° |
| 2026-04-23 20:01 | 60.22640 | 24.47345 | 7215 ft | 264 kts | 200° |
| 2026-04-23 20:01 | 60.20836 | 24.46848 | 6842 ft | 264 kts | 174° |
| 2026-04-23 20:01 | 60.19140 | 24.48091 | 6479 ft | 259 kts | 143° |
| 2026-04-23 20:02 | 60.17823 | 24.50472 | 6089 ft | 253 kts | 121° |
| 2026-04-23 20:02 | 60.17224 | 24.53660 | 5703 ft | 240 kts | 90° |
| 2026-04-23 20:02 | 60.17250 | 24.56971 | 5293 ft | 236 kts | 81° |
| 2026-04-23 20:02 | 60.17660 | 24.60088 | 4883 ft | 229 kts | 60° |
| 2026-04-23 20:03 | 60.18572 | 24.62643 | 4480 ft | 224 kts | 44° |
| 2026-04-23 20:03 | 60.19621 | 24.64915 | 4097 ft | 218 kts | 44° |
| 2026-04-23 20:03 | 60.20649 | 24.67141 | 3560 ft | 219 kts | 44° |
| 2026-04-23 20:03 | 60.21679 | 24.69378 | 3061 ft | 214 kts | 44° |
| 2026-04-23 20:04 | 60.22644 | 24.71482 | 2761 ft | 197 kts | 43° |
| 2026-04-23 20:04 | 60.23557 | 24.73471 | 2463 ft | 191 kts | 44° |
| 2026-04-23 20:04 | 60.24438 | 24.75390 | 2204 ft | 181 kts | 44° |
| 2026-04-23 20:04 | 60.25243 | 24.77149 | 1977 ft | 159 kts | 43° |
| 2026-04-23 20:05 | 60.25958 | 24.78711 | 1746 ft | 146 kts | 43° |
| 2026-04-23 20:05 | 60.26636 | 24.80189 | 1546 ft | 142 kts | 44° |
| 2026-04-23 20:05 | 60.27301 | 24.81640 | 1346 ft | 140 kts | 44° |
| 2026-04-23 20:05 | 60.27963 | 24.83087 | 1149 ft | 140 kts | 44° |
| 2026-04-23 20:06 | 60.28627 | 24.84535 | 944 ft | 141 kts | 45° |
| 2026-04-23 20:06 | 60.29294 | 24.85976 | 720 ft | 140 kts | 45° |
| 2026-04-23 20:06 | 60.29954 | 24.87423 | 571 ft | 140 kts | 46° |
| 2026-04-23 20:06 | 60.30607 | 24.88882 | 374 ft | 140 kts | 46° |
| 2026-04-23 20:07 | 60.31266 | 24.90315 | 207 ft | 139 kts | 45° |
| 2026-04-23 20:07 | 60.31886 | 24.91671 | 149 ft | 115 kts | 47° |
| 2026-04-23 20:07 | 60.32306 | 24.92604 | 170 ft | 63 kts | 48° |
| 2026-04-23 20:07 | 60.32431 | 24.93009 | 174 ft | 26 kts | 74° |
| 2026-04-23 20:08 | 60.32473 | 24.93353 | 174 ft | 25 kts | 77° |
| 2026-04-23 20:08 | 60.32511 | 24.93699 | 171 ft | 25 kts | 78° |
| 2026-04-23 20:08 | 60.32573 | 24.93992 | 170 ft | 24 kts | 44° |
| 2026-04-23 20:08 | 60.32685 | 24.94236 | 172 ft | 24 kts | 51° |
| 2026-04-23 20:09 | 60.32798 | 24.94490 | 174 ft | 25 kts | 46° |
| 2026-04-23 20:09 | 60.32911 | 24.94736 | 176 ft | 20 kts | 46° |
| 2026-04-23 20:09 | 60.33006 | 24.94942 | 176 ft | 21 kts | 48° |
| 2026-04-23 20:09 | 60.33106 | 24.95168 | 178 ft | 22 kts | 48° |
| 2026-04-23 20:10 | 60.33176 | 24.95323 | 180 ft | 22 kts | 47° |
| 2026-04-23 20:10 | 60.33135 | 24.95655 | 180 ft | 23 kts | 138° |
| 2026-04-23 20:10 | 60.33005 | 24.95851 | 180 ft | 24 kts | 150° |
| 2026-04-23 20:10 | 60.32844 | 24.96036 | 174 ft | 28 kts | 150° |
| 2026-04-23 20:11 | 60.32666 | 24.96241 | 172 ft | 30 kts | 150° |
| 2026-04-23 20:11 | 60.32483 | 24.96458 | 174 ft | 31 kts | 149° |
| 2026-04-23 20:11 | 60.32352 | 24.96614 | 172 ft | 20 kts | 150° |
| 2026-04-23 20:11 | 60.32221 | 24.96762 | 166 ft | 20 kts | 149° |
| 2026-04-23 20:12 | 60.32125 | 24.96873 | 166 ft | 10 kts | 152° |
| 2026-04-23 20:12 | 60.32071 | 24.96873 | 167 ft | 5 kts | 192° |
| 2026-04-23 20:12 | 60.32041 | 24.96860 | 167 ft | 3 kts | 193° |
| 2026-04-23 20:12 | 60.32024 | 24.96851 | 167 ft | 2 kts | 193° |
| 2026-04-23 20:13 | 60.32012 | 24.96846 | 167 ft | 1 kts | 193° |
| 2026-04-23 20:13 | 60.32011 | 24.96845 | 167 ft | 0 kts | 193° |